Oolitic, IN (47451)

3:31 PM EDT on April 19, 2015 (GMT -0400)
Rolling Acres | | Change Station
CLOSE
Current Station
Personal Weather Station
Location: Oolitic, IN
Elevation: 545 ft
Nearby Weather Stations

Elev 545 ft 38.89 °N, 86.53 °W | Updated 58 seconds ago

Rain
Rain
61.6 °F
Feels Like 61.6 °F
N
0.0
Wind Variable Wind from SE
Gusts 0.0 mph

Today
High -- | Low -- °F
--% Chance of Precip.
Yesterday
High -- | Low -- °F
Precip. -- in
7:04 AM 8:26 PM
New Moon, 2% visible
Pressure 29.54 in
Visibility 1.8 miles
Clouds Overcast 600 ft
Dew Point 61 °F
Humidity 98%
Rainfall 1.15 in
Snow Depth Not available.
UV 3 out of 12
Pollen 6.10 out of 12
Air Quality Not available.
Flu Activity Local Activity
SPECI KBMG 191908Z 00000KT 1 3/4SM +RA BR OVC006 16/15 A2954 RMK AO2 P0005 T01610150

More Conditions Fewer Conditions

Pressure 29.54 in
Visibility 1.8 miles
Clouds Overcast 600 ft
Dew Point 61 °F
Humidity 98%
Rainfall 1.15 in
Snow Depth Not available.
UV 3 out of 12
Pollen 6.10 out of 12
Air Quality Not available.
Flu Activity Local Activity
SPECI KBMG 191908Z 00000KT 1 3/4SM +RA BR OVC006 16/15 A2954 RMK AO2 P0005 T01610150

More Conditions Fewer Conditions

10-Day Weather Forecast

Almanac

Astronomy

Apr. 19, 2015 Rise Set
Actual Time
Civil Twilight
Nautical Twilight
Astronomical Twilight
Moon
Length of Visible Light
Length of Day
Tomorrow will be .
, % of the Moon is Illuminated

Today's Extremes

State Highs State Lows

Community

WunderPhotos

Upload Photos

1,814,944 photos uploaded!

WunderBlogs® & News

Nearby

Air Quality

  Air Quality AQ Index Pollutant
Not available.

Snow Depth

Station Depth Elevation

Earthquake Activity

City Distance Mag. Time & Date
Minimum magnitude displayed is 2.5.

Coastal Water Temperatures

Place Temperature

Stations

Nearby Weather Stations

Station Location Temp. Windchill Dew Point Humidity Wind Precip. Elev Updated Type